Time;durP1;ratioP1;P1;durP2;ratioP2;P2;SDS_P1;SDS_P2;PMS_P1;PMS_P2;Temp;Humidity;BMP_temperature;BMP_pressure;BME280_temperature;BME280_humidity;BME280_pressure;Samples;Min_cycle;Max_cycle;Signal;HPM_P1;HPM_P2
2023/10/01 00:00:38;;;;;;;10.23;4.47;;;14.80;99.90;;;;;;5095105;28;20044;-66
2023/10/01 00:03:06;;;;;;;8.98;4.30;;;14.80;99.90;;;;;;5094180;28;20086;-66
2023/10/01 00:05:33;;;;;;;9.48;4.18;;;14.80;99.90;;;;;;5093091;28;20079;-66
2023/10/01 00:08:01;;;;;;;12.52;4.72;;;14.80;99.90;;;;;;5094498;28;20059;-66
2023/10/01 00:10:28;;;;;;;9.18;4.10;;;14.80;99.90;;;;;;5112541;28;20476;-66
2023/10/01 00:12:56;;;;;;;10.00;4.72;;;14.80;99.90;;;;;;5094422;28;20049;-66
2023/10/01 00:15:25;;;;;;;12.10;4.40;;;14.80;99.90;;;;;;5093455;28;20076;-66
2023/10/01 00:17:52;;;;;;;13.10;4.53;;;14.80;99.90;;;;;;5093993;28;20503;-66
2023/10/01 00:20:23;;;;;;;7.45;3.75;;;14.80;99.90;;;;;;5094771;28;20096;-66
2023/10/01 00:22:52;;;;;;;11.13;4.35;;;14.80;99.90;;;;;;5094125;28;20052;-66
2023/10/01 00:25:21;;;;;;;10.60;3.70;;;14.80;99.90;;;;;;5094623;28;20453;-66
2023/10/01 00:27:48;;;;;;;9.60;3.67;;;14.80;99.90;;;;;;5094537;28;20051;-66
2023/10/01 00:30:15;;;;;;;9.70;3.92;;;14.80;99.90;;;;;;5094250;28;20667;-67
2023/10/01 00:32:42;;;;;;;10.90;4.13;;;14.80;99.90;;;;;;5093477;28;20044;-67
2023/10/01 00:35:11;;;;;;;10.38;4.40;;;14.80;99.90;;;;;;5112441;28;20040;-67
2023/10/01 00:37:39;;;;;;;8.73;3.88;;;14.80;99.90;;;;;;5093512;28;20521;-66
2023/10/01 00:40:10;;;;;;;12.88;4.50;;;14.70;99.90;;;;;;5093230;28;20052;-67
2023/10/01 00:42:38;;;;;;;14.23;5.35;;;14.80;99.90;;;;;;5090874;28;20068;-66
2023/10/01 00:45:08;;;;;;;9.23;4.43;;;14.70;99.90;;;;;;5093751;28;20120;-67
2023/10/01 00:47:39;;;;;;;8.77;4.20;;;14.70;99.90;;;;;;5093127;28;20051;-66
2023/10/01 00:50:11;;;;;;;13.15;4.88;;;14.70;99.90;;;;;;5094460;28;20048;-66
2023/10/01 00:52:41;;;;;;;12.15;4.40;;;14.70;99.90;;;;;;5091642;28;20062;-66
2023/10/01 00:55:09;;;;;;;9.02;4.55;;;14.70;99.90;;;;;;5093940;28;20568;-66
2023/10/01 00:57:37;;;;;;;10.63;5.22;;;14.70;99.90;;;;;;5092669;28;20059;-66
2023/10/01 01:00:09;;;;;;;12.10;4.53;;;14.70;99.90;;;;;;5093536;28;20064;-66
2023/10/01 01:02:38;;;;;;;12.77;5.43;;;14.70;99.90;;;;;;5093843;28;20061;-66
2023/10/01 01:05:19;;;;;;;12.48;4.85;;;14.70;99.90;;;;;;5093466;28;20470;-66
2023/10/01 01:07:49;;;;;;;11.25;5.30;;;14.70;99.90;;;;;;5093831;28;20051;-66
2023/10/01 01:10:18;;;;;;;14.43;6.20;;;14.70;99.90;;;;;;5094214;28;20617;-66
2023/10/01 01:12:47;;;;;;;13.63;5.45;;;14.70;99.90;;;;;;5093548;28;20407;-67
2023/10/01 01:15:14;;;;;;;9.25;5.38;;;14.70;99.90;;;;;;5094038;28;20055;-67
2023/10/01 01:17:41;;;;;;;11.63;5.05;;;14.70;99.90;;;;;;5110941;28;20044;-66
2023/10/01 01:20:13;;;;;;;19.92;6.72;;;14.70;99.90;;;;;;5093466;28;20119;-67
2023/10/01 01:22:50;;;;;;;10.52;6.03;;;14.70;99.90;;;;;;5093618;28;20134;-67
2023/10/01 01:25:20;;;;;;;19.48;6.35;;;14.70;99.90;;;;;;5094064;28;20047;-67
2023/10/01 01:27:47;;;;;;;12.75;5.70;;;14.70;99.90;;;;;;5093105;28;20100;-67
2023/10/01 01:30:18;;;;;;;20.42;6.05;;;14.70;99.90;;;;;;5093946;28;20100;-67
2023/10/01 01:32:47;;;;;;;13.45;6.22;;;14.70;99.90;;;;;;5093851;28;20047;-67
2023/10/01 01:35:15;;;;;;;15.20;6.45;;;14.70;99.90;;;;;;5093560;28;20391;-66
2023/10/01 01:37:47;;;;;;;12.48;5.82;;;14.70;99.90;;;;;;5089459;28;20044;-67
2023/10/01 01:40:24;;;;;;;15.68;6.32;;;14.70;99.90;;;;;;5093115;28;20044;-67
2023/10/01 01:42:52;;;;;;;12.30;6.57;;;14.70;99.90;;;;;;5091541;28;20048;-67
2023/10/01 01:45:25;;;;;;;12.05;6.38;;;14.70;99.90;;;;;;5093919;28;20055;-67
2023/10/01 01:47:52;;;;;;;14.50;7.00;;;14.60;99.90;;;;;;5115510;28;20047;-67
2023/10/01 01:50:21;;;;;;;22.13;8.05;;;14.60;99.90;;;;;;5095570;28;20078;-67
2023/10/01 01:52:50;;;;;;;13.88;7.70;;;14.70;99.90;;;;;;5097113;28;20101;-67
2023/10/01 01:55:26;;;;;;;14.20;7.97;;;14.70;99.90;;;;;;5096882;28;20047;-66
2023/10/01 01:58:06;;;;;;;14.82;7.68;;;14.60;99.90;;;;;;5097089;28;20052;-66
2023/10/01 02:00:35;;;;;;;19.98;8.30;;;14.60;99.90;;;;;;5096582;28;20442;-66
2023/10/01 02:03:10;;;;;;;19.00;8.45;;;14.60;99.90;;;;;;5096840;28;20093;-66
2023/10/01 02:05:41;;;;;;;13.93;8.00;;;14.60;99.90;;;;;;5097192;28;20047;-66
2023/10/01 02:08:23;;;;;;;14.55;8.10;;;14.60;99.90;;;;;;5096679;28;20075;-66
2023/10/01 02:10:50;;;;;;;13.88;8.27;;;14.60;99.90;;;;;;5097220;28;20521;-66
2023/10/01 02:13:17;;;;;;;14.80;7.57;;;14.60;99.90;;;;;;5092888;28;20048;-65
2023/10/01 02:15:46;;;;;;;15.50;8.30;;;14.60;99.90;;;;;;5096602;28;20087;-66
2023/10/01 02:18:16;;;;;;;14.80;7.70;;;14.60;99.90;;;;;;5097108;28;20063;-66
2023/10/01 02:20:45;;;;;;;12.98;8.15;;;14.60;99.90;;;;;;5097009;28;20051;-66
2023/10/01 02:23:17;;;;;;;17.63;8.88;;;14.60;99.90;;;;;;5096498;28;20048;-66
2023/10/01 02:25:46;;;;;;;15.05;8.40;;;14.60;99.90;;;;;;5097082;28;20059;-66
2023/10/01 02:28:15;;;;;;;19.52;9.70;;;14.60;99.90;;;;;;5096457;28;20043;-66
2023/10/01 02:30:44;;;;;;;15.52;8.98;;;14.60;99.90;;;;;;5095008;28;20090;-66
2023/10/01 02:33:18;;;;;;;16.80;9.17;;;14.60;99.90;;;;;;5093358;28;20050;-67
2023/10/01 02:35:48;;;;;;;18.80;9.70;;;14.60;99.90;;;;;;5095035;28;20488;-66
2023/10/01 02:38:43;;;;;;;18.17;8.65;;;14.60;99.90;;;;;;5095889;28;20058;-66
2023/10/01 02:41:10;;;;;;;17.10;8.65;;;14.60;99.90;;;;;;5096629;28;20066;-66
2023/10/01 02:43:41;;;;;;;17.80;8.90;;;14.60;99.90;;;;;;5096043;28;20176;-66
2023/10/01 02:46:11;;;;;;;14.93;9.30;;;14.60;99.90;;;;;;5093316;28;20134;-65
2023/10/01 02:48:40;;;;;;;19.77;9.45;;;14.60;99.90;;;;;;5114380;28;20040;-65
2023/10/01 02:51:15;;;;;;;23.27;10.40;;;14.50;99.90;;;;;;5095842;28;20333;-66
2023/10/01 02:54:01;;;;;;;14.60;9.07;;;14.50;99.90;;;;;;5095835;28;20051;-67
2023/10/01 02:56:27;;;;;;;17.58;9.13;;;14.50;99.90;;;;;;5096035;28;20388;-67
2023/10/01 02:59:07;;;;;;;18.50;9.57;;;14.50;99.90;;;;;;5095483;28;20074;-66
2023/10/01 03:01:34;;;;;;;19.58;8.77;;;14.50;99.90;;;;;;5096307;28;20047;-67
2023/10/01 03:04:05;;;;;;;15.35;9.82;;;14.50;99.90;;;;;;5095685;28;20054;-67
2023/10/01 03:06:33;;;;;;;15.73;9.10;;;14.50;99.90;;;;;;5095667;28;20051;-67
2023/10/01 03:09:00;;;;;;;19.00;9.27;;;14.50;99.90;;;;;;5095893;28;20048;-67
2023/10/01 03:11:34;;;;;;;15.55;8.93;;;14.50;99.90;;;;;;5095521;28;20039;-67
2023/10/01 03:14:04;;;;;;;18.42;8.63;;;14.50;99.90;;;;;;5095882;28;20043;-67
2023/10/01 03:16:42;;;;;;;15.85;8.32;;;14.50;99.90;;;;;;5095928;28;20402;-67
2023/10/01 03:19:19;;;;;;;14.38;9.70;;;14.50;99.90;;;;;;5095468;28;20047;-67
2023/10/01 03:24:37;;;;;;;16.27;9.35;;;14.50;99.90;;;;;;5113790;28;20475;-66
2023/10/01 03:27:19;;;;;;;17.65;9.40;;;14.60;99.90;;;;;;5095171;28;20051;-67
2023/10/01 03:29:48;;;;;;;16.25;10.07;;;14.60;99.90;;;;;;5113786;28;20510;-67
2023/10/01 03:35:06;;;;;;;19.77;8.57;;;14.60;99.90;;;;;;5094943;28;20103;-67
2023/10/01 03:37:38;;;;;;;16.30;8.88;;;14.60;99.90;;;;;;5095488;28;20052;-66
2023/10/01 03:40:18;;;;;;;17.13;9.32;;;14.60;99.90;;;;;;5094752;28;20055;-66
2023/10/01 03:42:51;;;;;;;14.80;8.38;;;14.60;99.90;;;;;;5094008;28;20051;-67
2023/10/01 03:45:51;;;;;;;17.83;8.60;;;14.60;99.90;;;;;;5094492;28;20415;-67
2023/10/01 03:48:19;;;;;;;14.80;8.88;;;14.70;99.90;;;;;;5093858;28;20134;-68
2023/10/01 03:50:47;;;;;;;16.92;8.75;;;14.70;99.90;;;;;;5095255;28;20441;-66
2023/10/01 03:53:17;;;;;;;16.02;8.38;;;14.70;99.90;;;;;;5095140;28;20487;-67
2023/10/01 03:55:48;;;;;;;15.48;8.70;;;14.70;99.90;;;;;;5094086;28;20047;-66
2023/10/01 03:58:26;;;;;;;16.35;8.45;;;14.70;99.90;;;;;;5095158;28;20388;-67
2023/10/01 04:00:54;;;;;;;18.75;8.50;;;14.70;99.90;;;;;;5094065;28;20107;-67
2023/10/01 04:03:22;;;;;;;14.70;8.68;;;14.70;99.90;;;;;;5094787;28;20051;-67
2023/10/01 04:05:49;;;;;;;17.45;9.15;;;14.70;99.90;;;;;;5090644;28;20125;-66
2023/10/01 04:08:17;;;;;;;12.93;8.15;;;14.80;99.90;;;;;;5093097;28;20082;-66
2023/10/01 04:10:57;;;;;;;13.13;7.93;;;14.80;99.90;;;;;;5113116;28;20127;-66
2023/10/01 04:13:24;;;;;;;16.98;9.13;;;14.80;99.90;;;;;;5094782;28;20047;-66
2023/10/01 04:15:55;;;;;;;17.25;8.70;;;14.80;99.90;;;;;;5092039;28;20124;-66
2023/10/01 04:18:24;;;;;;;14.98;8.50;;;14.80;99.90;;;;;;5094845;28;20051;-66
2023/10/01 04:23:47;;;;;;;13.45;7.95;;;14.80;99.90;;;;;;5094050;28;20070;-66
2023/10/01 04:26:17;;;;;;;14.45;8.05;;;14.80;99.90;;;;;;5091253;28;20523;-66
2023/10/01 04:28:46;;;;;;;16.98;8.77;;;14.80;99.90;;;;;;5089711;28;20138;-66
2023/10/01 04:31:18;;;;;;;12.68;8.02;;;14.80;99.90;;;;;;5094135;28;20055;-66
2023/10/01 04:33:48;;;;;;;12.23;7.65;;;14.80;99.90;;;;;;5094554;28;20122;-66
2023/10/01 04:36:17;;;;;;;18.58;7.90;;;14.80;99.90;;;;;;5091035;28;20080;-67
2023/10/01 04:38:45;;;;;;;13.63;8.13;;;14.80;99.90;;;;;;5093805;28;20126;-67
2023/10/01 04:41:17;;;;;;;12.15;7.68;;;14.80;99.90;;;;;;5094195;28;20059;-67
2023/10/01 04:43:55;;;;;;;13.60;7.22;;;14.80;99.90;;;;;;5093667;28;20138;-66
2023/10/01 04:46:24;;;;;;;13.32;8.13;;;14.80;99.90;;;;;;5094154;28;20163;-67
2023/10/01 04:48:52;;;;;;;13.50;7.18;;;14.80;99.90;;;;;;5089988;28;20048;-66
2023/10/01 04:51:21;;;;;;;14.85;7.95;;;14.80;99.90;;;;;;5093376;28;20044;-67
2023/10/01 04:53:49;;;;;;;15.10;7.63;;;14.80;99.90;;;;;;5094347;28;20348;-67
2023/10/01 04:56:21;;;;;;;15.57;7.97;;;14.80;99.90;;;;;;5093399;28;20047;-67
2023/10/01 04:58:52;;;;;;;18.38;8.20;;;14.80;99.90;;;;;;5093742;28;20055;-67
2023/10/01 05:01:23;;;;;;;13.95;7.50;;;14.90;99.90;;;;;;5094277;28;20071;-67
2023/10/01 05:03:52;;;;;;;18.02;7.55;;;14.90;99.90;;;;;;5094363;28;20043;-67
2023/10/01 05:06:19;;;;;;;14.05;7.70;;;14.80;99.90;;;;;;5093990;28;20039;-67
2023/10/01 05:08:49;;;;;;;12.65;7.10;;;14.90;99.90;;;;;;5094126;28;20093;-67
2023/10/01 05:11:21;;;;;;;14.32;8.13;;;14.90;99.90;;;;;;5093452;28;20047;-67
2023/10/01 05:13:51;;;;;;;13.60;7.97;;;14.90;99.90;;;;;;5093907;28;20126;-65
2023/10/01 05:16:26;;;;;;;12.95;7.60;;;14.90;99.90;;;;;;5093467;28;20043;-66
2023/10/01 05:19:09;;;;;;;17.52;7.28;;;14.90;99.90;;;;;;5093257;28;20044;-67
2023/10/01 05:21:41;;;;;;;12.15;7.43;;;14.80;99.90;;;;;;5096744;28;20059;-67
2023/10/01 05:24:09;;;;;;;15.05;8.27;;;14.80;99.90;;;;;;5097911;28;20047;-67
2023/10/01 05:26:38;;;;;;;14.52;8.15;;;14.80;99.90;;;;;;5096565;28;20131;-67
2023/10/01 05:29:07;;;;;;;15.20;8.00;;;14.80;99.90;;;;;;5096319;28;20052;-66
2023/10/01 05:31:34;;;;;;;16.63;8.02;;;14.70;99.90;;;;;;5115815;28;20036;-66
2023/10/01 05:34:01;;;;;;;16.63;7.25;;;14.70;99.90;;;;;;5097167;28;20048;-66
2023/10/01 05:36:29;;;;;;;13.20;7.78;;;14.70;99.90;;;;;;5097806;28;20055;-66
2023/10/01 05:38:56;;;;;;;19.38;8.70;;;14.70;99.90;;;;;;5097492;28;20167;-67
2023/10/01 05:41:32;;;;;;;15.00;7.95;;;14.70;99.90;;;;;;5097198;28;20047;-65
2023/10/01 05:44:04;;;;;;;14.45;8.25;;;14.70;99.90;;;;;;5096329;28;20082;-65
2023/10/01 05:46:31;;;;;;;14.43;8.30;;;14.70;99.90;;;;;;5093546;28;20056;-66
2023/10/01 05:49:00;;;;;;;16.27;8.18;;;14.60;99.90;;;;;;5097207;28;20055;-66
2023/10/01 05:51:42;;;;;;;16.60;8.65;;;14.60;99.90;;;;;;5096063;28;20048;-66
2023/10/01 05:54:11;;;;;;;15.88;7.95;;;14.60;99.90;;;;;;5096421;28;20413;-65
2023/10/01 05:56:43;;;;;;;17.08;8.23;;;14.60;99.90;;;;;;5096643;28;20059;-67
2023/10/01 05:59:12;;;;;;;14.50;7.82;;;14.60;99.90;;;;;;5114151;28;20050;-66
2023/10/01 06:01:39;;;;;;;14.40;8.07;;;14.60;99.90;;;;;;5114783;28;20071;-66
2023/10/01 06:04:12;;;;;;;17.45;7.65;;;14.60;99.90;;;;;;5096898;28;20054;-66
2023/10/01 06:06:42;;;;;;;15.18;7.75;;;14.70;99.90;;;;;;5094020;28;20076;-66
2023/10/01 06:09:14;;;;;;;16.98;7.88;;;14.60;99.90;;;;;;5096790;28;20047;-66
2023/10/01 06:11:48;;;;;;;13.73;6.88;;;14.70;99.90;;;;;;5097100;28;20083;-65
2023/10/01 06:17:01;;;;;;;11.18;6.50;;;14.60;99.90;;;;;;5096963;28;20055;-66
2023/10/01 06:19:28;;;;;;;15.85;8.07;;;14.60;99.90;;;;;;5096980;28;20096;-66
2023/10/01 06:22:12;;;;;;;11.93;7.15;;;14.60;99.90;;;;;;5096300;28;20039;-65
2023/10/01 06:24:39;;;;;;;16.23;6.85;;;14.60;99.90;;;;;;5096903;28;20138;-66
2023/10/01 06:27:06;;;;;;;14.07;6.57;;;14.70;99.90;;;;;;5096794;28;20428;-67
2023/10/01 06:29:49;;;;;;;14.50;6.80;;;14.70;99.90;;;;;;5096200;28;20043;-67
2023/10/01 06:32:17;;;;;;;18.92;7.72;;;14.70;99.90;;;;;;5096079;28;20450;-67
2023/10/01 06:34:45;;;;;;;12.52;6.43;;;14.80;99.90;;;;;;5094794;28;20108;-66
2023/10/01 06:37:12;;;;;;;17.88;8.18;;;14.80;99.90;;;;;;5095750;28;20075;-66
2023/10/01 06:39:41;;;;;;;14.80;6.93;;;14.80;99.90;;;;;;5114834;28;20555;-65
2023/10/01 06:42:23;;;;;;;13.43;6.15;;;14.90;99.90;;;;;;5096904;28;20040;-65
2023/10/01 06:44:55;;;;;;;13.75;6.40;;;14.90;99.90;;;;;;5096681;28;20513;-65
2023/10/01 06:47:23;;;;;;;14.48;7.28;;;15.10;99.90;;;;;;5085537;28;20108;-66
2023/10/01 06:50:07;;;;;;;13.70;7.47;;;15.20;99.90;;;;;;5092019;28;20056;-66
2023/10/01 06:52:41;;;;;;;13.73;7.68;;;15.20;99.90;;;;;;5090355;28;20047;-65
2023/10/01 06:55:25;;;;;;;11.25;7.20;;;15.20;99.90;;;;;;5090370;28;20411;-65
2023/10/01 06:57:53;;;;;;;15.77;7.53;;;15.30;99.90;;;;;;5091794;28;20052;-66
2023/10/01 07:00:22;;;;;;;12.38;7.13;;;15.30;99.90;;;;;;5111550;28;20044;-65
2023/10/01 07:02:50;;;;;;;16.50;7.95;;;15.40;99.90;;;;;;5094462;28;20047;-66
2023/10/01 07:05:20;;;;;;;11.88;7.03;;;15.50;99.90;;;;;;5094768;28;20051;-65
2023/10/01 07:07:49;;;;;;;21.17;7.68;;;15.50;99.90;;;;;;5095447;28;20071;-66
2023/10/01 07:10:19;;;;;;;12.18;6.97;;;15.60;99.90;;;;;;5094472;28;20058;-66
2023/10/01 07:12:58;;;;;;;;;;;15.70;99.90;;;;;;5091988;28;20044;-67
2023/10/01 07:15:26;;;;;;;17.20;6.95;;;15.80;99.90;;;;;;5095093;28;20448;-66
2023/10/01 07:17:53;;;;;;;13.63;6.90;;;15.90;99.90;;;;;;5094456;28;20055;-66
2023/10/01 07:20:24;;;;;;;16.42;6.78;;;15.90;99.90;;;;;;5091769;28;20397;-66
2023/10/01 07:22:51;;;;;;;16.33;6.93;;;16.00;99.90;;;;;;5093670;28;20135;-65
2023/10/01 07:25:37;;;;;;;14.75;6.88;;;16.00;99.90;;;;;;5092910;28;20048;-66
2023/10/01 07:28:06;;;;;;;16.00;6.97;;;16.10;99.90;;;;;;5113009;28;20047;-65
2023/10/01 07:30:45;;;;;;;15.60;6.88;;;16.10;99.90;;;;;;5111339;28;20044;-65
2023/10/01 07:33:14;;;;;;;12.85;6.45;;;16.20;99.90;;;;;;5093136;28;20399;-64
2023/10/01 07:35:44;;;;;;;12.48;5.97;;;16.20;99.90;;;;;;5092897;28;20134;-65
2023/10/01 07:38:11;;;;;;;14.05;6.60;;;16.20;99.90;;;;;;5093963;28;20052;-65
2023/10/01 07:40:56;;;;;;;12.57;6.35;;;16.20;99.90;;;;;;5092761;28;20100;-65
2023/10/01 07:43:24;;;;;;;16.20;6.82;;;16.20;99.90;;;;;;5093306;28;20050;-66
2023/10/01 07:45:59;;;;;;;13.23;5.97;;;16.10;99.90;;;;;;5094293;28;20059;-65
2023/10/01 07:48:28;;;;;;;14.52;6.18;;;16.20;99.90;;;;;;5112148;28;20062;-65
2023/10/01 07:50:55;;;;;;;13.00;6.55;;;16.20;99.90;;;;;;5109490;28;20123;-66
2023/10/01 07:53:24;;;;;;;14.43;6.05;;;16.20;99.90;;;;;;5089681;28;20043;-65
2023/10/01 07:55:50;;;;;;;17.45;6.75;;;16.10;99.90;;;;;;5094201;28;20451;-66
2023/10/01 07:58:23;;;;;;;11.32;5.63;;;16.10;99.90;;;;;;5092562;28;20504;-65
2023/10/01 08:00:58;;;;;;;15.43;6.93;;;16.10;99.90;;;;;;5093975;28;20223;-65
2023/10/01 08:03:32;;;;;;;13.35;6.72;;;16.10;99.90;;;;;;5089325;28;20657;-66
2023/10/01 08:06:15;;;;;;;16.80;6.35;;;16.00;99.90;;;;;;5093464;28;20067;-65
2023/10/01 08:08:47;;;;;;;14.35;6.50;;;16.00;99.90;;;;;;5090909;28;20048;-66
2023/10/01 08:13:55;;;;;;;13.20;6.65;;;16.00;99.90;;;;;;5110527;28;20395;-65
2023/10/01 08:16:24;;;;;;;17.02;6.55;;;16.10;99.90;;;;;;5093867;28;20044;-65
2023/10/01 08:18:57;;;;;;;12.70;6.38;;;16.10;99.90;;;;;;5094091;28;20108;-66
2023/10/01 08:21:36;;;;;;;15.20;6.85;;;16.20;99.90;;;;;;5090186;28;20067;-65
2023/10/01 08:24:09;;;;;;;11.77;5.88;;;16.30;99.90;;;;;;5087097;28;20035;-65
2023/10/01 08:26:44;;;;;;;11.82;6.68;;;16.30;99.90;;;;;;5090292;28;20048;-66
2023/10/01 08:29:14;;;;;;;15.68;6.07;;;16.40;99.90;;;;;;5091689;28;20519;-66
2023/10/01 08:32:08;;;;;;;12.68;6.55;;;16.50;99.90;;;;;;5089057;28;20110;-66
2023/10/01 08:34:50;;;;;;;16.13;6.60;;;16.50;99.90;;;;;;5091037;28;20044;-65
2023/10/01 08:37:22;;;;;;;16.05;6.63;;;16.40;99.90;;;;;;5089071;28;20044;-65
2023/10/01 08:39:53;;;;;;;12.77;6.43;;;16.40;99.90;;;;;;5106312;28;20118;-66
2023/10/01 08:42:22;;;;;;;13.95;6.47;;;16.60;99.90;;;;;;5092215;28;20170;-66
2023/10/01 08:44:49;;;;;;;14.65;6.93;;;16.70;99.90;;;;;;5093076;28;20441;-66
2023/10/01 08:47:27;;;;;;;15.43;6.28;;;16.90;99.90;;;;;;5088262;28;20384;-66
2023/10/01 08:49:56;;;;;;;14.23;7.20;;;16.90;99.90;;;;;;5092606;28;20402;-66
2023/10/01 08:52:30;;;;;;;11.38;6.22;;;17.00;99.90;;;;;;5090876;28;20104;-65
2023/10/01 08:54:58;;;;;;;13.25;5.90;;;17.00;99.90;;;;;;5109353;28;20499;-65
2023/10/01 08:57:45;;;;;;;16.00;6.10;;;17.20;99.90;;;;;;5107849;28;20052;-65
2023/10/01 09:00:17;;;;;;;13.63;5.78;;;17.40;99.90;;;;;;5108865;28;20097;-65
2023/10/01 09:02:50;;;;;;;12.23;5.82;;;17.80;99.90;;;;;;5089164;28;20054;-66
2023/10/01 09:05:23;;;;;;;11.95;6.60;;;17.90;99.90;;;;;;5106600;28;20118;-66
2023/10/01 09:08:14;;;;;;;13.43;6.53;;;17.90;99.90;;;;;;5093027;28;20750;-65
2023/10/01 09:10:49;;;;;;;13.70;6.43;;;18.00;99.90;;;;;;5091476;28;20134;-65
2023/10/01 09:13:21;;;;;;;14.02;6.80;;;18.20;99.90;;;;;;5091162;28;20043;-66
2023/10/01 09:15:53;;;;;;;10.63;5.55;;;18.80;99.90;;;;;;5091908;28;20047;-66
2023/10/01 09:18:23;;;;;;;11.63;5.30;;;19.40;99.90;;;;;;5090822;28;20048;-66
2023/10/01 09:21:09;;;;;;;16.02;6.68;;;20.40;99.90;;;;;;5089072;28;20063;-66
2023/10/01 09:23:55;;;;;;;12.13;6.10;;;21.00;99.90;;;;;;5093126;28;20044;-67
2023/10/01 09:26:42;;;;;;;12.90;5.55;;;21.20;99.90;;;;;;5089602;28;20139;-67
2023/10/01 09:29:22;;;;;;;14.85;7.15;;;21.60;99.90;;;;;;5091822;28;20452;-67
2023/10/01 09:31:53;;;;;;;15.35;6.70;;;21.60;99.90;;;;;;5089762;28;20564;-67
2023/10/01 09:34:33;;;;;;;14.13;6.55;;;21.50;99.90;;;;;;5088729;28;20556;-67
2023/10/01 09:37:06;;;;;;;13.15;5.60;;;21.50;99.90;;;;;;5092196;28;20086;-67
2023/10/01 09:39:41;;;;;;;14.93;5.90;;;21.70;99.90;;;;;;5089960;28;20079;-67
2023/10/01 09:42:22;;;;;;;13.25;6.18;;;21.50;99.90;;;;;;5091536;28;20063;-67
2023/10/01 09:44:52;;;;;;;14.75;6.35;;;21.30;99.90;;;;;;5110594;28;20043;-65
2023/10/01 09:47:24;;;;;;;14.23;6.40;;;21.10;99.90;;;;;;5090963;28;20052;-67
2023/10/01 09:49:53;;;;;;;17.80;6.13;;;21.20;99.90;;;;;;5090672;28;20054;-67
2023/10/01 09:52:48;;;;;;;11.75;5.95;;;21.40;99.90;;;;;;5089394;28;20047;-67
2023/10/01 09:55:26;;;;;;;17.48;6.63;;;21.60;99.90;;;;;;5090929;28;20051;-67
2023/10/01 09:57:54;;;;;;;18.65;6.13;;;21.70;99.90;;;;;;5091983;28;20128;-66
2023/10/01 10:00:39;;;;;;;12.30;6.32;;;21.60;99.90;;;;;;5110357;28;20043;-67
2023/10/01 10:03:11;;;;;;;14.98;7.05;;;21.70;99.90;;;;;;5090303;28;20048;-66
2023/10/01 10:05:40;;;;;;;12.90;6.43;;;21.50;99.90;;;;;;5110840;28;20043;-66
2023/10/01 10:08:15;;;;;;;16.90;6.93;;;21.40;99.90;;;;;;5095265;28;20387;-66
2023/10/01 10:10:48;;;;;;;12.05;5.90;;;21.40;99.90;;;;;;5113208;28;20043;-66
2023/10/01 10:13:36;;;;;;;14.38;6.22;;;21.60;99.90;;;;;;5095000;28;20057;-66
2023/10/01 10:16:29;;;;;;;13.13;6.35;;;22.50;99.90;;;;;;5095244;28;20108;-66
2023/10/01 10:19:09;;;;;;;15.38;6.68;;;23.30;99.90;;;;;;5095077;28;20047;-66
2023/10/01 10:22:17;;;;;;;12.43;6.05;;;23.90;99.90;;;;;;5092990;28;20134;-66
2023/10/01 10:24:54;;;;;;;13.15;5.63;;;25.50;99.90;;;;;;5094131;28;20450;-66
2023/10/01 10:27:47;;;;;;;13.77;6.28;;;26.10;99.90;;;;;;5093319;28;20821;-67
2023/10/01 10:30:21;;;;;;;15.38;5.97;;;26.60;99.90;;;;;;5095548;28;20054;-66
2023/10/01 10:33:38;;;;;;;15.80;6.65;;;26.90;99.90;;;;;;5093867;28;20527;-66
2023/10/01 10:36:34;;;;;;;11.63;6.25;;;26.30;99.90;;;;;;5094956;28;20508;-66
2023/10/01 10:39:15;;;;;;;15.27;7.30;;;26.20;99.90;;;;;;5114399;28;20047;-67
2023/10/01 10:42:27;;;;;;;13.25;6.70;;;26.40;99.90;;;;;;5094535;28;20406;-65
2023/10/01 10:45:21;;;;;;;14.40;6.70;;;26.20;99.90;;;;;;5112390;28;20043;-65
2023/10/01 10:47:58;;;;;;;12.15;6.15;;;25.60;99.90;;;;;;5095153;28;20052;-66
2023/10/01 10:50:45;;;;;;;14.35;6.63;;;25.00;99.90;;;;;;5095809;28;20075;-66
2023/10/01 10:53:15;;;;;;;13.55;6.65;;;24.30;99.90;;;;;;5095832;28;20135;-67
2023/10/01 10:55:53;;;;;;;15.13;6.72;;;24.00;99.90;;;;;;5094317;28;20437;-66
2023/10/01 10:58:20;;;;;;;12.18;6.22;;;23.60;99.90;;;;;;5072188;28;20106;-66
2023/10/01 11:00:49;;;;;;;14.85;6.28;;;23.30;99.90;;;;;;5070601;28;20082;-66
2023/10/01 11:03:17;;;;;;;16.42;6.80;;;23.20;99.90;;;;;;5071642;28;20553;-66
2023/10/01 11:05:50;;;;;;;12.82;6.45;;;23.10;99.90;;;;;;5073701;28;20076;-67
2023/10/01 11:08:25;;;;;;;14.63;7.28;;;22.90;99.90;;;;;;5070968;28;20099;-66
2023/10/01 11:10:55;;;;;;;16.55;6.45;;;22.70;99.90;;;;;;5071590;28;20085;-66
2023/10/01 11:13:38;;;;;;;16.05;6.28;;;22.70;99.90;;;;;;5072218;28;20072;-67
2023/10/01 11:16:14;;;;;;;14.02;6.65;;;22.60;99.90;;;;;;5071367;28;20404;-67
2023/10/01 11:18:44;;;;;;;12.57;6.38;;;22.50;99.90;;;;;;5069984;28;20126;-67
2023/10/01 11:21:20;;;;;;;13.57;6.53;;;22.70;99.90;;;;;;5061590;28;20049;-66
2023/10/01 11:23:53;;;;;;;10.80;5.70;;;22.80;99.90;;;;;;5068450;28;20151;-66
2023/10/01 11:26:27;;;;;;;13.73;6.28;;;23.00;99.90;;;;;;5069396;28;20137;-67
2023/10/01 11:28:57;;;;;;;16.13;6.47;;;23.20;99.90;;;;;;5070490;28;20056;-66
2023/10/01 11:31:24;;;;;;;16.40;6.53;;;23.40;99.90;;;;;;5065032;28;20049;-66
2023/10/01 11:34:03;;;;;;;12.73;6.68;;;23.50;99.90;;;;;;5072652;28;20052;-68
2023/10/01 11:36:36;;;;;;;16.13;6.22;;;23.40;99.90;;;;;;5069868;28;20045;-67
2023/10/01 11:39:04;;;;;;;15.10;7.05;;;23.40;99.90;;;;;;5070081;28;20084;-67
2023/10/01 11:41:43;;;;;;;16.77;7.03;;;23.30;99.90;;;;;;5069620;28;20048;-68
2023/10/01 11:44:24;;;;;;;14.82;6.60;;;23.40;99.90;;;;;;5070409;28;20574;-67
2023/10/01 11:46:58;;;;;;;12.50;6.05;;;23.50;99.90;;;;;;5069951;28;20173;-67
2023/10/01 11:49:32;;;;;;;13.80;6.32;;;23.50;99.90;;;;;;5066874;28;20051;-67
2023/10/01 11:52:02;;;;;;;13.70;6.07;;;23.30;99.90;;;;;;5069794;28;20059;-68
2023/10/01 11:54:43;;;;;;;12.77;6.55;;;23.10;99.90;;;;;;5067248;28;20094;-68
2023/10/01 11:57:22;;;;;;;15.25;6.38;;;23.10;99.90;;;;;;5094517;28;20074;-67
2023/10/01 11:59:54;;;;;;;13.90;6.57;;;23.10;99.90;;;;;;5092214;28;20044;-67
2023/10/01 12:02:25;;;;;;;14.07;6.22;;;22.80;99.90;;;;;;5091327;28;20048;-67
2023/10/01 12:04:57;;;;;;;17.45;6.75;;;22.80;99.90;;;;;;5094073;28;20040;-67
2023/10/01 12:07:27;;;;;;;12.85;6.50;;;22.80;99.90;;;;;;5092590;28;20097;-67
2023/10/01 12:09:55;;;;;;;11.67;5.93;;;22.90;99.90;;;;;;5092469;28;20096;-67
2023/10/01 12:12:25;;;;;;;12.05;5.60;;;23.20;99.90;;;;;;5091690;28;20368;-67
2023/10/01 12:14:53;;;;;;;14.15;6.72;;;23.20;99.90;;;;;;5090271;28;20512;-67
2023/10/01 12:17:23;;;;;;;14.25;6.53;;;23.20;99.90;;;;;;5089785;28;20089;-67
2023/10/01 12:19:54;;;;;;;12.23;5.88;;;23.40;99.90;;;;;;5093940;28;20043;-67
2023/10/01 12:22:24;;;;;;;12.45;5.82;;;23.80;99.90;;;;;;5092296;28;20504;-67
2023/10/01 12:24:56;;;;;;;12.00;6.82;;;24.10;99.90;;;;;;5093379;28;20040;-67
2023/10/01 12:27:45;;;;;;;15.43;6.30;;;24.30;99.90;;;;;;5092895;28;20058;-66
2023/10/01 12:30:29;;;;;;;13.85;6.05;;;24.60;99.90;;;;;;5107948;28;20085;-66
2023/10/01 12:33:00;;;;;;;15.63;7.13;;;24.20;99.90;;;;;;5091185;28;20052;-67
2023/10/01 12:35:29;;;;;;;12.93;6.57;;;24.00;99.90;;;;;;5091962;28;20135;-67
2023/10/01 12:38:05;;;;;;;14.95;7.80;;;24.00;99.90;;;;;;5110369;28;20459;-67
2023/10/01 12:40:35;;;;;;;11.57;6.35;;;24.30;99.90;;;;;;5092751;28;20047;-67
2023/10/01 12:43:03;;;;;;;;;;;24.80;99.90;;;;;;5093153;28;20122;-67
2023/10/01 12:45:32;;;;;;;12.95;6.38;;;25.40;99.90;;;;;;5097977;28;20117;-67
2023/10/01 12:48:08;;;;;;;12.43;6.47;;;25.90;99.90;;;;;;5091476;28;20103;-66
2023/10/01 12:50:35;;;;;;;11.32;6.40;;;26.20;99.90;;;;;;5110341;28;20512;-68
2023/10/01 12:53:19;;;;;;;12.70;6.38;;;26.60;99.90;;;;;;5093536;28;20367;-67
2023/10/01 12:55:52;;;;;;;13.52;6.50;;;26.80;99.70;;;;;;5090617;28;20724;-67
2023/10/01 12:58:29;;;;;;;15.40;7.18;;;26.90;99.60;;;;;;5093270;28;20047;-67
2023/10/01 13:00:57;;;;;;;10.65;6.32;;;26.70;99.40;;;;;;5090809;28;20048;-66
2023/10/01 13:03:24;;;;;;;14.35;6.72;;;27.20;99.00;;;;;;5093051;28;20388;-66
2023/10/01 13:05:52;;;;;;;15.10;6.68;;;27.10;98.70;;;;;;5092689;28;20376;-66
2023/10/01 13:08:27;;;;;;;13.98;7.28;;;26.90;98.90;;;;;;5091386;28;20084;-66
2023/10/01 13:10:55;;;;;;;11.93;6.45;;;26.70;99.60;;;;;;5091523;28;20507;-66
2023/10/01 13:13:29;;;;;;;11.38;6.40;;;26.30;99.70;;;;;;5092228;28;20059;-66
2023/10/01 13:16:00;;;;;;;11.80;6.82;;;26.10;99.90;;;;;;5092703;28;20046;-67
2023/10/01 13:18:31;;;;;;;15.98;6.63;;;25.80;99.90;;;;;;5092678;28;20145;-68
2023/10/01 13:21:06;;;;;;;16.38;7.07;;;25.40;99.90;;;;;;5090029;28;20105;-66